Time;durP1;ratioP1;P1;durP2;ratioP2;P2;SDS_P1;SDS_P2;PMS_P1;PMS_P2;Temp;Humidity;BMP_temperature;BMP_pressure;BME280_temperature;BME280_humidity;BME280_pressure;Samples;Min_cycle;Max_cycle;Signal;HPM_P1;HPM_P2
2022/03/08 00:00:05;;;;;;;;;47.75;40.75;;;;;;;;5139419;27;47493;-78
2022/03/08 00:02:30;;;;;;;;;39.75;36.50;;;;;;;;5143034;27;45309;-78
2022/03/08 00:04:56;;;;;;;;;40.00;37.75;;;;;;;;5143002;27;45247;-78
2022/03/08 00:07:21;;;;;;;;;43.25;39.00;;;;;;;;5144526;27;45439;-78
2022/03/08 00:09:46;;;;;;;;;51.25;39.75;;;;;;;;5142628;27;48133;-78
2022/03/08 00:12:11;;;;;;;;;48.75;39.25;;;;;;;;5112905;27;45360;-78
2022/03/08 00:14:37;;;;;;;;;44.75;37.50;;;;;;;;5101039;27;45250;-78
2022/03/08 00:17:03;;;;;;;;;50.50;41.00;;;;;;;;5101233;27;46255;-77
2022/03/08 00:19:28;;;;;;;;;51.25;40.00;;;;;;;;5141813;27;45197;-78
2022/03/08 00:21:53;;;;;;;;;44.00;38.25;;;;;;;;5143445;27;45232;-78
2022/03/08 00:24:19;;;;;;;;;46.25;39.25;;;;;;;;5144175;27;45193;-78
2022/03/08 00:26:44;;;;;;;;;41.00;37.00;;;;;;;;5142281;27;46375;-78
2022/03/08 00:29:09;;;;;;;;;46.75;40.75;;;;;;;;5143546;27;46305;-78
2022/03/08 00:31:34;;;;;;;;;46.50;38.25;;;;;;;;5142680;27;46039;-78
2022/03/08 00:34:00;;;;;;;;;38.00;34.50;;;;;;;;5144200;27;45271;-79
2022/03/08 00:36:25;;;;;;;;;40.50;38.50;;;;;;;;5142155;27;46129;-78
2022/03/08 00:38:52;;;;;;;;;51.75;39.00;;;;;;;;5143353;27;45393;-78
2022/03/08 00:41:17;;;;;;;;;44.75;38.75;;;;;;;;5143475;27;45367;-78
2022/03/08 00:43:42;;;;;;;;;49.50;39.50;;;;;;;;5143895;27;45335;-77
2022/03/08 00:46:08;;;;;;;;;43.25;39.25;;;;;;;;5142334;27;46448;-78
2022/03/08 00:48:33;;;;;;;;;41.75;37.00;;;;;;;;5143412;27;45627;-78
2022/03/08 00:50:58;;;;;;;;;44.00;38.50;;;;;;;;5143455;27;45373;-78
2022/03/08 00:53:23;;;;;;;;;45.25;40.25;;;;;;;;5144054;27;45284;-77
2022/03/08 00:55:49;;;;;;;;;50.25;42.75;;;;;;;;5141949;27;46991;-77
2022/03/08 00:58:14;;;;;;;;;41.75;38.25;;;;;;;;5143413;27;45588;-79
2022/03/08 01:00:40;;;;;;;;;39.50;36.75;;;;;;;;5141895;27;45238;-77
2022/03/08 01:03:05;;;;;;;;;49.25;40.75;;;;;;;;5143506;27;45416;-78
2022/03/08 01:05:31;;;;;;;;;52.50;39.50;;;;;;;;5143532;27;45385;-78
2022/03/08 01:07:56;;;;;;;;;47.00;39.75;;;;;;;;5142563;27;45323;-78
2022/03/08 01:10:22;;;;;;;;;52.75;40.50;;;;;;;;5143050;27;45339;-78
2022/03/08 01:12:48;;;;;;;;;39.75;35.25;;;;;;;;5141564;27;45240;-78
2022/03/08 01:15:14;;;;;;;;;37.00;36.00;;;;;;;;5141752;27;45689;-78
2022/03/08 01:17:40;;;;;;;;;42.25;39.75;;;;;;;;5138198;27;45332;-77
2022/03/08 01:20:07;;;;;;;;;42.00;39.25;;;;;;;;5120635;27;45433;-78
2022/03/08 01:22:32;;;;;;;;;38.00;35.00;;;;;;;;5122255;27;45283;-78
2022/03/08 01:24:58;;;;;;;;;48.75;42.00;;;;;;;;5120323;27;45920;-78
2022/03/08 01:27:23;;;;;;;;;50.25;42.75;;;;;;;;5122079;27;46410;-78
2022/03/08 01:29:48;;;;;;;;;43.75;39.50;;;;;;;;5121261;27;45308;-78
2022/03/08 01:32:13;;;;;;;;;39.25;35.00;;;;;;;;5122202;27;45400;-78
2022/03/08 01:34:39;;;;;;;;;42.50;34.25;;;;;;;;5120695;27;47099;-78
2022/03/08 01:37:04;;;;;;;;;43.25;37.50;;;;;;;;5120771;27;48556;-77
2022/03/08 01:39:29;;;;;;;;;41.50;37.00;;;;;;;;5121609;27;45370;-78
2022/03/08 01:41:55;;;;;;;;;46.25;37.75;;;;;;;;5120813;27;45368;-78
2022/03/08 01:44:20;;;;;;;;;49.75;41.00;;;;;;;;5121983;27;45507;-77
2022/03/08 01:46:45;;;;;;;;;41.25;37.00;;;;;;;;5121320;27;45495;-78
2022/03/08 01:49:11;;;;;;;;;36.50;36.00;;;;;;;;5121780;27;45282;-78
2022/03/08 01:51:37;;;;;;;;;43.75;38.00;;;;;;;;5119926;27;45293;-78
2022/03/08 01:54:03;;;;;;;;;43.25;37.00;;;;;;;;5120296;27;46296;-77
2022/03/08 01:56:29;;;;;;;;;48.25;40.00;;;;;;;;5120153;27;47281;-77
2022/03/08 01:58:54;;;;;;;;;43.50;37.00;;;;;;;;5121654;27;45275;-78
2022/03/08 02:01:19;;;;;;;;;41.75;38.50;;;;;;;;5120258;27;45291;-78
2022/03/08 02:03:45;;;;;;;;;43.75;38.75;;;;;;;;5121441;27;45380;-78
2022/03/08 02:06:10;;;;;;;;;52.00;40.75;;;;;;;;5121419;27;45296;-77
2022/03/08 02:08:35;;;;;;;;;48.50;40.50;;;;;;;;5121301;27;45420;-78
2022/03/08 02:11:00;;;;;;;;;40.75;36.25;;;;;;;;5121258;27;45247;-78
2022/03/08 02:13:26;;;;;;;;;40.50;36.25;;;;;;;;5121581;27;45566;-78
2022/03/08 02:15:52;;;;;;;;;39.25;37.00;;;;;;;;5121106;27;46168;-78
2022/03/08 02:18:17;;;;;;;;;44.00;38.25;;;;;;;;5129621;27;45401;-78
2022/03/08 02:20:43;;;;;;;;;46.25;39.75;;;;;;;;5142237;27;45394;-78
2022/03/08 02:23:08;;;;;;;;;40.75;37.00;;;;;;;;5139222;27;46377;-78
2022/03/08 02:25:33;;;;;;;;;40.25;30.00;;;;;;;;5141747;27;46390;-78
2022/03/08 02:27:58;;;;;;;;;44.50;38.00;;;;;;;;5140331;27;45532;-78
2022/03/08 02:30:25;;;;;;;;;40.00;37.75;;;;;;;;5142303;27;45257;-78
2022/03/08 02:32:50;;;;;;;;;43.50;35.75;;;;;;;;5140152;27;47247;-78
2022/03/08 02:35:17;;;;;;;;;52.00;39.00;;;;;;;;5141632;27;45412;-77
2022/03/08 02:37:43;;;;;;;;;43.50;39.75;;;;;;;;5140348;27;45136;-78
2022/03/08 02:40:11;;;;;;;;;45.75;40.00;;;;;;;;5141720;27;45283;-78
2022/03/08 02:42:37;;;;;;;;;45.75;38.00;;;;;;;;5143375;27;45437;-77
2022/03/08 02:45:03;;;;;;;;;43.25;37.50;;;;;;;;5141714;27;45479;-77
2022/03/08 02:47:28;;;;;;;;;42.75;37.25;;;;;;;;5141583;27;45394;-77
2022/03/08 02:49:53;;;;;;;;;42.00;38.75;;;;;;;;5141175;27;45347;-77
2022/03/08 02:52:19;;;;;;;;;39.00;36.50;;;;;;;;5141438;27;45333;-77
2022/03/08 02:54:44;;;;;;;;;43.50;38.50;;;;;;;;5141374;27;45405;-77
2022/03/08 02:57:09;;;;;;;;;40.25;33.50;;;;;;;;5139928;27;45351;-78
2022/03/08 02:59:34;;;;;;;;;39.50;36.50;;;;;;;;5140372;27;45351;-77
2022/03/08 03:02:01;;;;;;;;;45.25;39.75;;;;;;;;5139723;27;46281;-78
2022/03/08 03:04:26;;;;;;;;;48.00;41.50;;;;;;;;5141112;27;46630;-77
2022/03/08 03:06:51;;;;;;;;;53.50;40.50;;;;;;;;5141046;27;45256;-77
2022/03/08 03:09:17;;;;;;;;;42.75;36.75;;;;;;;;5141352;27;45193;-77
2022/03/08 03:11:42;;;;;;;;;46.50;39.00;;;;;;;;5141347;27;45436;-77
2022/03/08 03:14:07;;;;;;;;;41.50;37.50;;;;;;;;5139722;27;47354;-78
2022/03/08 03:16:33;;;;;;;;;39.50;38.00;;;;;;;;5139994;27;45190;-78
2022/03/08 03:18:58;;;;;;;;;49.00;40.00;;;;;;;;5124061;27;45290;-77
2022/03/08 03:21:23;;;;;;;;;41.75;36.75;;;;;;;;5119959;27;45260;-77
2022/03/08 03:23:48;;;;;;;;;43.50;38.75;;;;;;;;5118579;27;48258;-77
2022/03/08 03:26:13;;;;;;;;;40.50;36.50;;;;;;;;5118769;27;45782;-78
2022/03/08 03:28:39;;;;;;;;;39.00;34.75;;;;;;;;5120138;27;45361;-78
2022/03/08 03:31:04;;;;;;;;;46.00;39.75;;;;;;;;5119969;27;45368;-77
2022/03/08 03:33:29;;;;;;;;;46.75;40.00;;;;;;;;5118794;27;47308;-77
2022/03/08 03:35:54;;;;;;;;;48.25;41.25;;;;;;;;5121568;27;45356;-77
2022/03/08 03:38:19;;;;;;;;;50.00;41.50;;;;;;;;5123799;27;45155;-77
2022/03/08 03:40:45;;;;;;;;;38.25;35.25;;;;;;;;5122226;27;46378;-78
2022/03/08 03:43:11;;;;;;;;;46.75;39.00;;;;;;;;5122102;27;48230;-78
2022/03/08 03:45:36;;;;;;;;;34.75;32.25;;;;;;;;5123664;27;45389;-77
2022/03/08 03:48:02;;;;;;;;;44.75;39.00;;;;;;;;5123564;27;45305;-77
2022/03/08 03:50:27;;;;;;;;;53.75;44.00;;;;;;;;5123760;27;45366;-78
2022/03/08 03:52:53;;;;;;;;;39.00;35.50;;;;;;;;5121974;27;47033;-78
2022/03/08 03:55:20;;;;;;;;;46.75;41.00;;;;;;;;5123549;27;45381;-78
2022/03/08 03:57:45;;;;;;;;;49.00;40.50;;;;;;;;5122258;27;45300;-77
2022/03/08 04:00:11;;;;;;;;;45.00;38.25;;;;;;;;5121747;27;46227;-78
2022/03/08 04:02:36;;;;;;;;;45.00;39.25;;;;;;;;5123374;27;45451;-77
2022/03/08 04:05:01;;;;;;;;;43.25;37.50;;;;;;;;5121869;27;46131;-78
2022/03/08 04:07:26;;;;;;;;;51.50;42.75;;;;;;;;5123371;27;45269;-78
2022/03/08 04:09:52;;;;;;;;;38.50;34.75;;;;;;;;5123186;27;45510;-77
2022/03/08 04:12:17;;;;;;;;;39.75;38.50;;;;;;;;5121783;27;47266;-78
2022/03/08 04:14:42;;;;;;;;;52.50;42.00;;;;;;;;5121544;27;45311;-77
2022/03/08 04:17:07;;;;;;;;;46.50;40.25;;;;;;;;5123320;27;45211;-77
2022/03/08 04:19:33;;;;;;;;;38.75;34.50;;;;;;;;5143781;27;45155;-77
2022/03/08 04:21:58;;;;;;;;;41.25;37.00;;;;;;;;5142307;27;47125;-78
2022/03/08 04:24:24;;;;;;;;;45.25;39.00;;;;;;;;5143648;27;45256;-77
2022/03/08 04:26:49;;;;;;;;;43.75;39.25;;;;;;;;5143867;27;45225;-78
2022/03/08 04:29:14;;;;;;;;;43.75;41.00;;;;;;;;5143551;27;45357;-78
2022/03/08 04:31:39;;;;;;;;;51.50;40.50;;;;;;;;5143685;27;45614;-77
2022/03/08 04:34:05;;;;;;;;;47.00;38.25;;;;;;;;5142399;27;45328;-77
2022/03/08 04:36:30;;;;;;;;;48.25;39.00;;;;;;;;5142338;27;45493;-77
2022/03/08 04:38:55;;;;;;;;;45.25;39.50;;;;;;;;5141927;27;46196;-77
2022/03/08 04:41:20;;;;;;;;;45.25;38.75;;;;;;;;5142242;27;47273;-77
2022/03/08 04:43:46;;;;;;;;;43.25;37.00;;;;;;;;5143572;27;45248;-77
2022/03/08 04:46:12;;;;;;;;;48.00;39.75;;;;;;;;5143112;27;45344;-77
2022/03/08 04:48:37;;;;;;;;;43.75;40.00;;;;;;;;5141587;27;45471;-77
2022/03/08 04:51:02;;;;;;;;;45.00;39.50;;;;;;;;5143514;27;46289;-78
2022/03/08 04:53:27;;;;;;;;;48.00;41.50;;;;;;;;5143271;27;45360;-77
2022/03/08 04:55:52;;;;;;;;;43.25;38.75;;;;;;;;5124272;27;45524;-77
2022/03/08 04:58:18;;;;;;;;;38.00;36.50;;;;;;;;5108941;27;45366;-77
2022/03/08 05:00:43;;;;;;;;;43.75;38.50;;;;;;;;5113906;27;45496;-78
2022/03/08 05:03:08;;;;;;;;;54.00;42.75;;;;;;;;5114723;27;45396;-79
2022/03/08 05:05:34;;;;;;;;;49.25;40.75;;;;;;;;5115695;27;45243;-79
2022/03/08 05:07:59;;;;;;;;;47.25;40.50;;;;;;;;5110298;27;47006;-78
2022/03/08 05:10:25;;;;;;;;;52.50;42.00;;;;;;;;5113150;27;45931;-77
2022/03/08 05:12:50;;;;;;;;;49.25;42.25;;;;;;;;5114429;27;45326;-77
2022/03/08 05:15:15;;;;;;;;;48.50;41.00;;;;;;;;5113830;27;46747;-77
2022/03/08 05:17:40;;;;;;;;;39.75;36.75;;;;;;;;5122026;27;45376;-77
2022/03/08 05:20:06;;;;;;;;;52.25;43.25;;;;;;;;5158072;27;45360;-77
2022/03/08 05:22:31;;;;;;;;;52.75;42.50;;;;;;;;5156686;27;45668;-77
2022/03/08 05:24:57;;;;;;;;;48.50;43.00;;;;;;;;5156408;27;45458;-77
2022/03/08 05:27:22;;;;;;;;;42.50;35.50;;;;;;;;5155207;27;46454;-77
2022/03/08 05:29:47;;;;;;;;;48.00;40.50;;;;;;;;5155307;27;46288;-77
2022/03/08 05:32:12;;;;;;;;;44.25;40.00;;;;;;;;5153069;27;45147;-76
2022/03/08 05:34:37;;;;;;;;;52.75;41.50;;;;;;;;5152697;27;45392;-77
2022/03/08 05:37:03;;;;;;;;;42.75;40.00;;;;;;;;5151445;27;47231;-77
2022/03/08 05:39:28;;;;;;;;;46.50;40.75;;;;;;;;5153565;27;46526;-76
2022/03/08 05:41:54;;;;;;;;;50.25;41.25;;;;;;;;5152880;27;45323;-77
2022/03/08 05:44:19;;;;;;;;;47.75;39.25;;;;;;;;5146428;27;45282;-77
2022/03/08 05:46:44;;;;;;;;;55.25;44.25;;;;;;;;5132783;27;45302;-76
2022/03/08 05:49:09;;;;;;;;;48.50;43.00;;;;;;;;5133136;27;45203;-76
2022/03/08 05:51:35;;;;;;;;;54.25;40.25;;;;;;;;5121789;27;45479;-76
2022/03/08 05:54:00;;;;;;;;;47.75;41.75;;;;;;;;5108890;27;45481;-77
2022/03/08 05:56:26;;;;;;;;;50.50;43.50;;;;;;;;5107495;27;47301;-75
2022/03/08 05:58:51;;;;;;;;;47.50;41.00;;;;;;;;5106964;27;48264;-76
2022/03/08 06:01:16;;;;;;;;;41.50;38.75;;;;;;;;5109194;27;45372;-77
2022/03/08 06:03:42;;;;;;;;;33.25;32.75;;;;;;;;5108489;27;45287;-78
2022/03/08 06:06:07;;;;;;;;;51.00;43.00;;;;;;;;5108992;27;45504;-79
2022/03/08 06:08:32;;;;;;;;;51.00;41.75;;;;;;;;5106993;27;45478;-79
2022/03/08 06:10:57;;;;;;;;;51.00;41.50;;;;;;;;5110173;27;45274;-82
2022/03/08 06:13:23;;;;;;;;;51.75;42.00;;;;;;;;5103528;27;45452;-80
2022/03/08 06:15:48;;;;;;;;;40.25;33.50;;;;;;;;5118953;27;46061;-80
2022/03/08 06:18:13;;;;;;;;;63.50;52.00;;;;;;;;5130909;27;47017;-77
2022/03/08 06:20:38;;;;;;;;;53.25;45.50;;;;;;;;5141993;27;45360;-77
2022/03/08 06:23:03;;;;;;;;;51.00;41.25;;;;;;;;5141946;27;45296;-77
2022/03/08 06:25:29;;;;;;;;;50.50;44.00;;;;;;;;5116455;27;45427;-77
2022/03/08 06:27:54;;;;;;;;;43.25;35.50;;;;;;;;5099474;27;46160;-78
2022/03/08 06:30:19;;;;;;;;;51.50;42.75;;;;;;;;5098575;27;45283;-77
2022/03/08 06:32:44;;;;;;;;;51.50;43.00;;;;;;;;5099786;27;45210;-77
2022/03/08 06:35:10;;;;;;;;;49.00;40.75;;;;;;;;5098341;27;46384;-77
2022/03/08 06:37:36;;;;;;;;;52.25;43.25;;;;;;;;5099432;27;45340;-77
2022/03/08 06:40:01;;;;;;;;;53.50;43.25;;;;;;;;5101267;27;45297;-78
2022/03/08 06:42:26;;;;;;;;;53.00;42.25;;;;;;;;5105472;27;45231;-75
2022/03/08 06:44:51;;;;;;;;;52.00;42.50;;;;;;;;5107753;27;46217;-76
2022/03/08 06:47:17;;;;;;;;;48.50;41.75;;;;;;;;5102763;27;45386;-74
2022/03/08 06:49:42;;;;;;;;;55.25;43.25;;;;;;;;5107658;27;45450;-76
2022/03/08 06:52:08;;;;;;;;;52.75;43.25;;;;;;;;5099121;27;45393;-75
2022/03/08 06:54:36;;;;;;;;;47.25;41.25;;;;;;;;5099755;27;46274;-76
2022/03/08 06:57:02;;;;;;;;;48.00;41.50;;;;;;;;5099218;27;45719;-76
2022/03/08 06:59:27;;;;;;;;;57.25;45.25;;;;;;;;5099428;27;45286;-76
2022/03/08 07:01:53;;;;;;;;;51.00;42.00;;;;;;;;5098513;27;45400;-76
2022/03/08 07:04:18;;;;;;;;;48.75;41.00;;;;;;;;5100059;27;45505;-76
2022/03/08 07:06:43;;;;;;;;;50.75;44.00;;;;;;;;5100278;27;45574;-75
2022/03/08 07:09:09;;;;;;;;;54.00;44.25;;;;;;;;5099708;27;45435;-76
2022/03/08 07:11:36;;;;;;;;;51.50;39.50;;;;;;;;5102340;27;45254;-76
2022/03/08 07:14:01;;;;;;;;;44.75;40.75;;;;;;;;5103636;27;45410;-76
2022/03/08 07:16:27;;;;;;;;;51.25;44.25;;;;;;;;5103533;27;46051;-75
2022/03/08 07:18:52;;;;;;;;;53.00;44.50;;;;;;;;5132985;27;45567;-76
2022/03/08 07:21:17;;;;;;;;;48.00;40.00;;;;;;;;5144873;27;45549;-76
2022/03/08 07:23:42;;;;;;;;;56.75;44.75;;;;;;;;5144809;27;45291;-76
2022/03/08 07:26:09;;;;;;;;;55.25;45.00;;;;;;;;5144393;27;45403;-76
2022/03/08 07:28:34;;;;;;;;;56.00;44.50;;;;;;;;5121827;27;45336;-76
2022/03/08 07:31:00;;;;;;;;;49.75;41.50;;;;;;;;5103421;27;45697;-75
2022/03/08 07:33:25;;;;;;;;;53.75;42.25;;;;;;;;5104151;27;45309;-76
2022/03/08 07:35:50;;;;;;;;;56.75;43.75;;;;;;;;5102870;27;45494;-75
2022/03/08 07:38:16;;;;;;;;;55.00;44.75;;;;;;;;5102539;27;45297;-75
2022/03/08 07:40:41;;;;;;;;;52.75;44.50;;;;;;;;5101962;27;45380;-76
2022/03/08 07:43:06;;;;;;;;;55.25;44.25;;;;;;;;5103298;27;45359;-78
2022/03/08 07:45:33;;;;;;;;;49.75;40.75;;;;;;;;5100964;27;48476;-77
2022/03/08 07:47:58;;;;;;;;;55.25;46.75;;;;;;;;5102774;27;45366;-77
2022/03/08 07:50:25;;;;;;;;;54.00;44.75;;;;;;;;5103316;27;45324;-78
2022/03/08 07:52:50;;;;;;;;;51.50;44.25;;;;;;;;5102798;27;45467;-77
2022/03/08 07:55:16;;;;;;;;;49.50;41.00;;;;;;;;5102851;27;45318;-78
2022/03/08 07:57:41;;;;;;;;;56.50;47.00;;;;;;;;5102957;27;45246;-77
2022/03/08 08:00:07;;;;;;;;;49.00;42.00;;;;;;;;5101677;27;45302;-77
2022/03/08 08:02:32;;;;;;;;;45.00;39.50;;;;;;;;5101254;27;46084;-78
2022/03/08 08:04:57;;;;;;;;;57.50;46.25;;;;;;;;5101352;27;47315;-80
2022/03/08 08:07:22;;;;;;;;;53.50;44.50;;;;;;;;5101372;27;45905;-78
2022/03/08 08:09:48;;;;;;;;;58.75;46.00;;;;;;;;5102775;27;45290;-79
2022/03/08 08:12:13;;;;;;;;;52.50;44.00;;;;;;;;5102650;27;45472;-78
2022/03/08 08:14:39;;;;;;;;;60.00;45.25;;;;;;;;5101158;27;47673;-78
2022/03/08 08:17:05;;;;;;;;;57.75;45.00;;;;;;;;5101306;27;45334;-78
2022/03/08 08:19:30;;;;;;;;;58.75;46.75;;;;;;;;5142865;27;45287;-77
2022/03/08 08:21:55;;;;;;;;;51.25;44.00;;;;;;;;5141248;27;45798;-78
2022/03/08 08:24:20;;;;;;;;;53.25;42.50;;;;;;;;5143737;27;45229;-78
2022/03/08 08:26:46;;;;;;;;;58.50;48.75;;;;;;;;5143648;27;45480;-78
2022/03/08 08:29:11;;;;;;;;;53.75;40.50;;;;;;;;5143718;27;45377;-78
2022/03/08 08:31:36;;;;;;;;;54.25;43.75;;;;;;;;5143761;27;45444;-78
2022/03/08 08:34:02;;;;;;;;;51.25;42.25;;;;;;;;5142248;27;47388;-78
2022/03/08 08:36:27;;;;;;;;;55.75;44.25;;;;;;;;5142170;27;45254;-78
2022/03/08 08:38:52;;;;;;;;;53.75;44.00;;;;;;;;5142336;27;45367;-79
2022/03/08 08:41:18;;;;;;;;;54.25;41.25;;;;;;;;5143609;27;45588;-77
2022/03/08 08:43:43;;;;;;;;;56.50;46.00;;;;;;;;5143436;27;45389;-80
2022/03/08 08:46:08;;;;;;;;;50.75;42.50;;;;;;;;5143501;27;45342;-79
2022/03/08 08:48:35;;;;;;;;;52.50;44.25;;;;;;;;5143651;27;45234;-78
2022/03/08 08:51:00;;;;;;;;;58.25;46.00;;;;;;;;5143305;27;45384;-79
2022/03/08 08:53:26;;;;;;;;;55.50;44.75;;;;;;;;5124535;27;45551;-78
2022/03/08 08:55:52;;;;;;;;;61.25;49.50;;;;;;;;5099669;27;45585;-80
2022/03/08 08:58:17;;;;;;;;;54.00;42.50;;;;;;;;5115347;27;45654;-80
2022/03/08 09:00:42;;;;;;;;;49.25;42.00;;;;;;;;5116833;27;46128;-78
2022/03/08 09:03:10;;;;;;;;;52.75;42.25;;;;;;;;5101052;27;46416;-79
2022/03/08 09:05:35;;;;;;;;;54.75;44.50;;;;;;;;5101893;27;45366;-78
2022/03/08 09:08:01;;;;;;;;;60.75;47.25;;;;;;;;5103718;27;45450;-79
2022/03/08 09:10:26;;;;;;;;;55.50;46.75;;;;;;;;5101837;27;45425;-79
2022/03/08 09:12:52;;;;;;;;;53.50;44.50;;;;;;;;5101523;27;46340;-78
2022/03/08 09:15:18;;;;;;;;;54.25;44.75;;;;;;;;5101017;27;45293;-79
2022/03/08 09:17:43;;;;;;;;;58.50;46.75;;;;;;;;5109005;27;45686;-80
2022/03/08 09:20:09;;;;;;;;;60.75;45.50;;;;;;;;5109542;27;45912;-78
2022/03/08 09:22:35;;;;;;;;;57.50;46.00;;;;;;;;5107312;27;48359;-79
2022/03/08 09:25:00;;;;;;;;;58.50;46.25;;;;;;;;5112955;27;45325;-80
2022/03/08 09:27:25;;;;;;;;;56.00;45.25;;;;;;;;5110806;27;45344;-79
2022/03/08 09:29:50;;;;;;;;;60.75;45.25;;;;;;;;5115901;27;47125;-79
2022/03/08 09:32:16;;;;;;;;;58.00;47.50;;;;;;;;5109886;27;45276;-80
2022/03/08 09:34:41;;;;;;;;;54.25;44.75;;;;;;;;5120572;27;45432;-78
2022/03/08 09:37:07;;;;;;;;;53.00;45.25;;;;;;;;5131604;27;45475;-79
2022/03/08 09:39:34;;;;;;;;;57.50;46.00;;;;;;;;5125292;27;45655;-80
2022/03/08 09:42:00;;;;;;;;;58.00;46.50;;;;;;;;5114785;27;47101;-79
2022/03/08 09:44:26;;;;;;;;;52.25;44.00;;;;;;;;5115263;27;45377;-78
2022/03/08 09:46:51;;;;;;;;;55.50;45.75;;;;;;;;5111805;27;45368;-78
2022/03/08 09:49:16;;;;;;;;;55.00;44.25;;;;;;;;5117483;27;45698;-78
2022/03/08 09:51:42;;;;;;;;;58.50;45.75;;;;;;;;5099568;27;48337;-79
2022/03/08 09:54:08;;;;;;;;;57.50;46.00;;;;;;;;5098583;27;45582;-77
2022/03/08 09:56:35;;;;;;;;;54.50;43.50;;;;;;;;5100629;27;45393;-78
2022/03/08 09:59:00;;;;;;;;;50.25;42.50;;;;;;;;5100766;27;45355;-77
2022/03/08 10:01:26;;;;;;;;;56.50;45.25;;;;;;;;5099465;27;48294;-77
2022/03/08 10:03:51;;;;;;;;;52.50;41.50;;;;;;;;5099490;27;45354;-78
2022/03/08 10:06:17;;;;;;;;;59.25;47.00;;;;;;;;5099366;27;45337;-78
2022/03/08 10:08:42;;;;;;;;;53.25;43.25;;;;;;;;5099170;27;47234;-78
2022/03/08 10:11:11;;;;;;;;;56.75;46.50;;;;;;;;5100464;27;46303;-78
2022/03/08 10:13:41;;;;;;;;;57.25;45.50;;;;;;;;5100855;27;45414;-79
2022/03/08 10:16:22;;;;;;;;;57.50;47.50;;;;;;;;5099424;27;45416;-78
2022/03/08 10:18:52;;;;;;;;;57.00;45.00;;;;;;;;5128745;27;45469;-77
2022/03/08 10:21:25;;;;;;;;;59.00;46.25;;;;;;;;5140269;27;47354;-78
2022/03/08 10:23:50;;;;;;;;;58.00;46.50;;;;;;;;5140651;27;46223;-78
2022/03/08 10:26:16;;;;;;;;;60.00;47.25;;;;;;;;5141736;27;45333;-78
2022/03/08 10:28:48;;;;;;;;;54.25;44.25;;;;;;;;5141682;27;45309;-78
2022/03/08 10:31:15;;;;;;;;;58.25;47.00;;;;;;;;5141869;27;46472;-78
2022/03/08 10:33:40;;;;;;;;;58.75;47.25;;;;;;;;5140380;27;45878;-79
2022/03/08 10:36:16;;;;;;;;;58.25;47.25;;;;;;;;5140269;27;45541;-78
2022/03/08 10:39:00;;;;;;;;;37.75;34.50;;;;;;;;5141855;27;45500;-78
2022/03/08 10:41:25;;;;;;;;;57.50;46.00;;;;;;;;5141552;27;45738;-76
2022/03/08 10:43:51;;;;;;;;;61.50;48.00;;;;;;;;5141305;27;45595;-76
2022/03/08 10:46:17;;;;;;;;;59.25;48.50;;;;;;;;5141483;27;45393;-76
2022/03/08 10:48:42;;;;;;;;;57.50;45.25;;;;;;;;5140180;27;46243;-77
2022/03/08 10:51:12;;;;;;;;;60.75;48.75;;;;;;;;5141279;27;46215;-77
2022/03/08 10:53:38;;;;;;;;;52.75;44.00;;;;;;;;5140263;27;45337;-76
2022/03/08 10:56:03;;;;;;;;;61.75;48.25;;;;;;;;5141491;27;45700;-77
2022/03/08 10:58:28;;;;;;;;;56.75;47.00;;;;;;;;5141455;27;45347;-76
2022/03/08 11:00:55;;;;;;;;;58.50;48.00;;;;;;;;5139901;27;47113;-76
2022/03/08 11:03:21;;;;;;;;;58.00;46.25;;;;;;;;5140185;27;45768;-76
2022/03/08 11:05:47;;;;;;;;;65.50;53.00;;;;;;;;5141643;27;45414;-76
2022/03/08 11:08:13;;;;;;;;;60.75;48.25;;;;;;;;5141071;27;45347;-76
2022/03/08 11:10:39;;;;;;;;;59.00;47.75;;;;;;;;5128955;27;45266;-75
2022/03/08 11:13:05;;;;;;;;;58.00;46.50;;;;;;;;5100375;27;45439;-76
2022/03/08 11:15:32;;;;;;;;;59.00;48.50;;;;;;;;5099326;27;45385;-77
2022/03/08 11:18:01;;;;;;;;;58.00;47.00;;;;;;;;5120525;27;46968;-76
2022/03/08 11:20:27;;;;;;;;;57.50;46.50;;;;;;;;5140682;27;47419;-77
2022/03/08 11:22:55;;;;;;;;;58.00;47.25;;;;;;;;5140661;27;45357;-77
2022/03/08 11:25:20;;;;;;;;;59.25;45.75;;;;;;;;5132821;27;45271;-76
2022/03/08 11:27:46;;;;;;;;;29.00;25.75;;;;;;;;5101074;27;45241;-78
2022/03/08 11:30:14;;;;;;;;;57.25;44.00;;;;;;;;5101986;27;46144;-76
2022/03/08 11:33:09;;;;;;;;;58.25;47.25;;;;;;;;5101894;27;45370;-77
2022/03/08 11:35:55;;;;;;;;;59.50;47.00;;;;;;;;5094960;27;45431;-77
2022/03/08 11:38:20;;;;;;;;;60.00;47.50;;;;;;;;5099875;27;45251;-78
2022/03/08 11:40:53;;;;;;;;;61.25;46.25;;;;;;;;5100465;27;45665;-77
2022/03/08 11:43:18;;;;;;;;;57.50;47.50;;;;;;;;5100877;27;45289;-77
2022/03/08 11:45:48;;;;;;;;;58.50;47.50;;;;;;;;5100432;27;45321;-77
2022/03/08 11:48:14;;;;;;;;;58.00;48.00;;;;;;;;5099683;27;45447;-77
2022/03/08 11:50:44;;;;;;;;;57.50;47.75;;;;;;;;5106591;27;45582;-77
2022/03/08 11:53:13;;;;;;;;;57.75;45.75;;;;;;;;5117676;27;45355;-77
2022/03/08 11:55:38;;;;;;;;;57.75;47.50;;;;;;;;5105817;27;45376;-76
2022/03/08 11:58:08;;;;;;;;;56.00;46.50;;;;;;;;5102670;27;45262;-77
2022/03/08 12:00:35;;;;;;;;;55.75;46.75;;;;;;;;5102915;27;45285;-78
2022/03/08 12:03:02;;;;;;;;;56.50;45.50;;;;;;;;5102684;27;45533;-77
2022/03/08 12:05:47;;;;;;;;;60.75;48.75;;;;;;;;5101650;27;45221;-77
2022/03/08 12:08:25;;;;;;;;;54.00;45.00;;;;;;;;5102125;27;45532;-78
2022/03/08 12:10:57;;;;;;;;;56.50;44.75;;;;;;;;5101828;27;47924;-77
2022/03/08 12:13:24;;;;;;;;;59.50;46.50;;;;;;;;5101877;27;45278;-78
2022/03/08 12:16:10;;;;;;;;;56.75;45.75;;;;;;;;5103576;27;45437;-76
2022/03/08 12:18:39;;;;;;;;;57.00;45.50;;;;;;;;5127340;27;45426;-78
2022/03/08 12:21:16;;;;;;;;;55.75;45.25;;;;;;;;5143767;27;45438;-78
2022/03/08 12:23:55;;;;;;;;;58.50;46.00;;;;;;;;5144175;27;45411;-79
2022/03/08 12:26:37;;;;;;;;;57.00;46.50;;;;;;;;5143833;27;45275;-78
2022/03/08 12:29:04;;;;;;;;;55.00;42.50;;;;;;;;5124668;27;46047;-78
2022/03/08 12:31:29;;;;;;;;;53.50;43.75;;;;;;;;5122922;27;46354;-78
2022/03/08 12:33:59;;;;;;;;;55.00;44.00;;;;;;;;5123343;27;45139;-78
2022/03/08 12:36:26;;;;;;;;;53.00;42.25;;;;;;;;5123444;27;45238;-77
2022/03/08 12:38:51;;;;;;;;;54.50;45.00;;;;;;;;5121657;27;47258;-78
2022/03/08 12:41:16;;;;;;;;;57.00;46.25;;;;;;;;5121925;27;46041;-77
2022/03/08 12:43:42;;;;;;;;;53.00;44.00;;;;;;;;5124658;27;45154;-79
2022/03/08 12:46:07;;;;;;;;;53.75;43.50;;;;;;;;5121850;27;45435;-78
2022/03/08 12:48:33;;;;;;;;;56.75;46.00;;;;;;;;5122998;27;45480;-80
2022/03/08 12:51:00;;;;;;;;;55.75;44.75;;;;;;;;5123338;27;46978;-79
2022/03/08 12:53:27;;;;;;;;;56.00;44.00;;;;;;;;5124478;27;45291;-78
2022/03/08 12:55:56;;;;;;;;;59.25;47.00;;;;;;;;5120924;27;45446;-78
2022/03/08 12:58:24;;;;;;;;;57.75;47.00;;;;;;;;5125961;27;45552;-79
2022/03/08 13:00:56;;;;;;;;;56.75;45.75;;;;;;;;5129406;27;48194;-80
2022/03/08 13:03:23;;;;;;;;;58.00;46.00;;;;;;;;5122597;27;45383;-80
2022/03/08 13:05:50;;;;;;;;;58.00;46.00;;;;;;;;5104272;27;45394;-80
2022/03/08 13:08:17;;;;;;;;;59.75;47.75;;;;;;;;5102710;27;45306;-79
2022/03/08 13:10:49;;;;;;;;;54.50;44.50;;;;;;;;5106989;27;47198;-81
2022/03/08 13:13:14;;;;;;;;;59.75;47.50;;;;;;;;5134280;27;45348;-79
2022/03/08 13:15:39;;;;;;;;;54.00;44.50;;;;;;;;5146689;27;45263;-80
2022/03/08 13:18:05;;;;;;;;;56.75;45.00;;;;;;;;5146731;27;47027;-81
2022/03/08 13:20:31;;;;;;;;;59.25;47.50;;;;;;;;5131060;27;45288;-80
2022/03/08 13:22:58;;;;;;;;;57.00;45.75;;;;;;;;5109081;27;45384;-81
2022/03/08 13:25:23;;;;;;;;;55.25;45.00;;;;;;;;5106740;27;45400;-80
2022/03/08 13:27:49;;;;;;;;;61.50;47.50;;;;;;;;5115524;27;46881;-80
2022/03/08 13:30:15;;;;;;;;;55.75;45.00;;;;;;;;5127214;27;48033;-79
2022/03/08 13:32:40;;;;;;;;;58.00;46.25;;;;;;;;5124822;27;45874;-82
2022/03/08 13:35:06;;;;;;;;;59.25;46.25;;;;;;;;5117019;27;45474;-81
2022/03/08 13:37:57;;;;;;;;;57.75;47.50;;;;;;;;5118489;27;45872;-80
2022/03/08 13:40:23;;;;;;;;;56.25;46.00;;;;;;;;5102239;27;47337;-80
2022/03/08 13:42:48;;;;;;;;;51.00;41.00;;;;;;;;5106325;27;45781;-80
2022/03/08 13:45:14;;;;;;;;;58.25;46.50;;;;;;;;5106619;27;45475;-81
2022/03/08 13:47:39;;;;;;;;;54.00;44.50;;;;;;;;5101547;27;46139;-84
2022/03/08 13:50:04;;;;;;;;;62.75;49.25;;;;;;;;5100875;27;45831;-80
2022/03/08 13:52:29;;;;;;;;;53.75;44.75;;;;;;;;5099636;27;45395;-80
2022/03/08 13:54:55;;;;;;;;;59.00;46.75;;;;;;;;5101033;27;45412;-81
2022/03/08 13:57:20;;;;;;;;;56.00;45.50;;;;;;;;5101525;27;45465;-82
2022/03/08 13:59:45;;;;;;;;;55.50;45.00;;;;;;;;5100087;27;47959;-83
2022/03/08 14:02:14;;;;;;;;;58.50;46.75;;;;;;;;5101561;27;46082;-82
2022/03/08 14:04:40;;;;;;;;;53.25;44.00;;;;;;;;5101789;27;45311;-81
2022/03/08 14:07:05;;;;;;;;;56.25;46.50;;;;;;;;5104400;27;45386;-82
2022/03/08 14:09:31;;;;;;;;;59.25;48.00;;;;;;;;5107422;27;48557;-82